sensor_id;sensor_type;location;lat;lon;timestamp;P1;durP1;ratioP1;P2;durP2;ratioP2
29728;SDS011;20055;51.498;11.960;2022-11-15T00:00:17;41.28;;;17.92;;
29728;SDS011;20055;51.498;11.960;2022-11-15T00:03:02;31.83;;;17.08;;
29728;SDS011;20055;51.498;11.960;2022-11-15T00:05:48;34.28;;;17.48;;
29728;SDS011;20055;51.498;11.960;2022-11-15T00:08:33;42.50;;;17.98;;
29728;SDS011;20055;51.498;11.960;2022-11-15T00:11:18;35.65;;;16.80;;
29728;SDS011;20055;51.498;11.960;2022-11-15T00:14:03;37.70;;;18.58;;
29728;SDS011;20055;51.498;11.960;2022-11-15T00:16:49;35.90;;;17.30;;
29728;SDS011;20055;51.498;11.960;2022-11-15T00:19:34;42.97;;;17.80;;
29728;SDS011;20055;51.498;11.960;2022-11-15T00:22:19;37.15;;;18.45;;
29728;SDS011;20055;51.498;11.960;2022-11-15T00:25:05;40.15;;;18.48;;
29728;SDS011;20055;51.498;11.960;2022-11-15T00:27:50;37.70;;;19.88;;
29728;SDS011;20055;51.498;11.960;2022-11-15T00:30:40;36.47;;;17.95;;
29728;SDS011;20055;51.498;11.960;2022-11-15T00:33:25;31.25;;;16.13;;
29728;SDS011;20055;51.498;11.960;2022-11-15T00:36:10;36.00;;;17.42;;
29728;SDS011;20055;51.498;11.960;2022-11-15T00:38:56;36.00;;;16.95;;
29728;SDS011;20055;51.498;11.960;2022-11-15T00:41:41;39.55;;;17.77;;
29728;SDS011;20055;51.498;11.960;2022-11-15T00:44:26;36.20;;;16.73;;
29728;SDS011;20055;51.498;11.960;2022-11-15T00:47:12;33.63;;;16.00;;
29728;SDS011;20055;51.498;11.960;2022-11-15T00:49:57;30.58;;;16.15;;
29728;SDS011;20055;51.498;11.960;2022-11-15T00:52:42;40.33;;;17.30;;
29728;SDS011;20055;51.498;11.960;2022-11-15T00:55:28;34.47;;;16.70;;
29728;SDS011;20055;51.498;11.960;2022-11-15T00:58:13;35.53;;;17.27;;
29728;SDS011;20055;51.498;11.960;2022-11-15T01:01:05;30.90;;;16.58;;
29728;SDS011;20055;51.498;11.960;2022-11-15T01:03:51;34.17;;;17.13;;
29728;SDS011;20055;51.498;11.960;2022-11-15T01:06:36;37.22;;;16.92;;
29728;SDS011;20055;51.498;11.960;2022-11-15T01:09:22;39.53;;;17.10;;
29728;SDS011;20055;51.498;11.960;2022-11-15T01:12:07;31.98;;;16.38;;
29728;SDS011;20055;51.498;11.960;2022-11-15T01:14:52;33.85;;;17.40;;
29728;SDS011;20055;51.498;11.960;2022-11-15T01:17:38;29.80;;;16.20;;
29728;SDS011;20055;51.498;11.960;2022-11-15T01:20:23;33.55;;;17.52;;
29728;SDS011;20055;51.498;11.960;2022-11-15T01:23:09;32.35;;;16.73;;
29728;SDS011;20055;51.498;11.960;2022-11-15T01:25:58;35.63;;;16.85;;
29728;SDS011;20055;51.498;11.960;2022-11-15T01:28:43;34.58;;;17.52;;
29728;SDS011;20055;51.498;11.960;2022-11-15T01:31:28;33.20;;;17.15;;
29728;SDS011;20055;51.498;11.960;2022-11-15T01:34:14;33.47;;;15.55;;
29728;SDS011;20055;51.498;11.960;2022-11-15T01:36:59;33.10;;;16.92;;
29728;SDS011;20055;51.498;11.960;2022-11-15T01:39:44;37.08;;;17.02;;
29728;SDS011;20055;51.498;11.960;2022-11-15T01:42:30;38.80;;;16.65;;
29728;SDS011;20055;51.498;11.960;2022-11-15T01:45:15;28.50;;;15.93;;
29728;SDS011;20055;51.498;11.960;2022-11-15T01:48:00;31.15;;;14.65;;
29728;SDS011;20055;51.498;11.960;2022-11-15T01:50:46;33.85;;;15.98;;
29728;SDS011;20055;51.498;11.960;2022-11-15T01:53:31;35.95;;;16.38;;
29728;SDS011;20055;51.498;11.960;2022-11-15T01:56:20;29.92;;;16.15;;
29728;SDS011;20055;51.498;11.960;2022-11-15T01:59:07;31.30;;;16.38;;
29728;SDS011;20055;51.498;11.960;2022-11-15T02:01:53;31.33;;;16.48;;
29728;SDS011;20055;51.498;11.960;2022-11-15T02:04:42;34.60;;;16.83;;
29728;SDS011;20055;51.498;11.960;2022-11-15T02:07:28;32.03;;;16.17;;
29728;SDS011;20055;51.498;11.960;2022-11-15T02:10:18;34.13;;;15.45;;
29728;SDS011;20055;51.498;11.960;2022-11-15T02:13:05;30.48;;;15.77;;
29728;SDS011;20055;51.498;11.960;2022-11-15T02:16:06;36.92;;;16.75;;
29728;SDS011;20055;51.498;11.960;2022-11-15T02:18:56;29.27;;;15.43;;
29728;SDS011;20055;51.498;11.960;2022-11-15T02:22:26;29.73;;;16.33;;
29728;SDS011;20055;51.498;11.960;2022-11-15T02:34:28;32.97;;;15.75;;
29728;SDS011;20055;51.498;11.960;2022-11-15T02:40:59;30.35;;;15.68;;
29728;SDS011;20055;51.498;11.960;2022-11-15T02:44:08;32.15;;;15.93;;
29728;SDS011;20055;51.498;11.960;2022-11-15T02:46:57;30.80;;;15.38;;
29728;SDS011;20055;51.498;11.960;2022-11-15T02:49:59;35.97;;;15.75;;
29728;SDS011;20055;51.498;11.960;2022-11-15T02:52:47;33.88;;;14.18;;
29728;SDS011;20055;51.498;11.960;2022-11-15T02:55:34;38.58;;;17.60;;
29728;SDS011;20055;51.498;11.960;2022-11-15T03:04:16;36.75;;;17.10;;
29728;SDS011;20055;51.498;11.960;2022-11-15T03:07:10;31.05;;;15.80;;
29728;SDS011;20055;51.498;11.960;2022-11-15T03:10:07;39.53;;;17.13;;
29728;SDS011;20055;51.498;11.960;2022-11-15T03:12:55;36.97;;;15.48;;
29728;SDS011;20055;51.498;11.960;2022-11-15T03:15:43;36.38;;;16.35;;
29728;SDS011;20055;51.498;11.960;2022-11-15T03:18:31;32.60;;;15.13;;
29728;SDS011;20055;51.498;11.960;2022-11-15T03:21:18;33.92;;;17.63;;
29728;SDS011;20055;51.498;11.960;2022-11-15T03:24:05;41.65;;;18.23;;
29728;SDS011;20055;51.498;11.960;2022-11-15T03:26:52;34.58;;;17.23;;
29728;SDS011;20055;51.498;11.960;2022-11-15T03:29:39;37.20;;;17.50;;
29728;SDS011;20055;51.498;11.960;2022-11-15T03:32:30;41.10;;;17.10;;
29728;SDS011;20055;51.498;11.960;2022-11-15T03:35:20;34.45;;;16.27;;
29728;SDS011;20055;51.498;11.960;2022-11-15T03:38:11;36.50;;;15.88;;
29728;SDS011;20055;51.498;11.960;2022-11-15T03:41:01;33.20;;;15.63;;
29728;SDS011;20055;51.498;11.960;2022-11-15T03:43:53;33.65;;;16.10;;
29728;SDS011;20055;51.498;11.960;2022-11-15T03:46:50;37.22;;;15.57;;
29728;SDS011;20055;51.498;11.960;2022-11-15T03:49:42;29.00;;;15.10;;
29728;SDS011;20055;51.498;11.960;2022-11-15T03:52:30;29.70;;;15.02;;
29728;SDS011;20055;51.498;11.960;2022-11-15T03:55:17;31.23;;;16.20;;
29728;SDS011;20055;51.498;11.960;2022-11-15T03:58:02;34.17;;;16.58;;
29728;SDS011;20055;51.498;11.960;2022-11-15T04:00:48;34.67;;;14.77;;
29728;SDS011;20055;51.498;11.960;2022-11-15T04:03:33;28.20;;;14.63;;
29728;SDS011;20055;51.498;11.960;2022-11-15T04:06:19;33.88;;;15.38;;
29728;SDS011;20055;51.498;11.960;2022-11-15T04:09:04;30.77;;;15.43;;
29728;SDS011;20055;51.498;11.960;2022-11-15T04:11:50;37.90;;;16.70;;
29728;SDS011;20055;51.498;11.960;2022-11-15T04:14:35;32.28;;;14.88;;
29728;SDS011;20055;51.498;11.960;2022-11-15T04:17:20;27.17;;;14.30;;
29728;SDS011;20055;51.498;11.960;2022-11-15T04:20:07;32.05;;;15.75;;
29728;SDS011;20055;51.498;11.960;2022-11-15T04:23:13;28.67;;;15.00;;
29728;SDS011;20055;51.498;11.960;2022-11-15T04:26:18;32.15;;;15.85;;
29728;SDS011;20055;51.498;11.960;2022-11-15T04:29:04;36.33;;;16.92;;
29728;SDS011;20055;51.498;11.960;2022-11-15T04:32:08;32.30;;;15.75;;
29728;SDS011;20055;51.498;11.960;2022-11-15T04:34:53;35.35;;;16.05;;
29728;SDS011;20055;51.498;11.960;2022-11-15T04:37:38;33.55;;;16.50;;
29728;SDS011;20055;51.498;11.960;2022-11-15T04:40:24;39.90;;;16.45;;
29728;SDS011;20055;51.498;11.960;2022-11-15T04:43:09;32.10;;;15.13;;
29728;SDS011;20055;51.498;11.960;2022-11-15T04:45:54;31.20;;;16.17;;
29728;SDS011;20055;51.498;11.960;2022-11-15T04:48:39;32.90;;;15.93;;
29728;SDS011;20055;51.498;11.960;2022-11-15T04:51:25;37.15;;;18.27;;
29728;SDS011;20055;51.498;11.960;2022-11-15T04:54:10;31.02;;;15.85;;
29728;SDS011;20055;51.498;11.960;2022-11-15T04:56:55;33.50;;;15.95;;
29728;SDS011;20055;51.498;11.960;2022-11-15T04:59:41;33.22;;;15.18;;
29728;SDS011;20055;51.498;11.960;2022-11-15T05:02:26;33.22;;;16.05;;
29728;SDS011;20055;51.498;11.960;2022-11-15T05:05:31;31.30;;;15.27;;
29728;SDS011;20055;51.498;11.960;2022-11-15T05:08:16;28.52;;;14.70;;
29728;SDS011;20055;51.498;11.960;2022-11-15T05:11:02;37.83;;;16.20;;
29728;SDS011;20055;51.498;11.960;2022-11-15T05:13:47;33.92;;;15.93;;
29728;SDS011;20055;51.498;11.960;2022-11-15T05:16:32;31.98;;;15.30;;
29728;SDS011;20055;51.498;11.960;2022-11-15T05:19:18;39.28;;;15.40;;
29728;SDS011;20055;51.498;11.960;2022-11-15T05:22:03;39.20;;;15.50;;
29728;SDS011;20055;51.498;11.960;2022-11-15T05:24:48;36.65;;;16.60;;
29728;SDS011;20055;51.498;11.960;2022-11-15T05:27:34;37.40;;;15.10;;
29728;SDS011;20055;51.498;11.960;2022-11-15T05:30:19;35.60;;;16.42;;
29728;SDS011;20055;51.498;11.960;2022-11-15T05:33:04;40.75;;;16.40;;
29728;SDS011;20055;51.498;11.960;2022-11-15T05:35:50;31.55;;;15.70;;
29728;SDS011;20055;51.498;11.960;2022-11-15T05:38:39;32.38;;;15.52;;
29728;SDS011;20055;51.498;11.960;2022-11-15T05:41:26;33.35;;;16.00;;
29728;SDS011;20055;51.498;11.960;2022-11-15T05:44:14;33.38;;;16.65;;
29728;SDS011;20055;51.498;11.960;2022-11-15T05:47:01;33.90;;;14.80;;
29728;SDS011;20055;51.498;11.960;2022-11-15T05:49:48;34.97;;;16.17;;
29728;SDS011;20055;51.498;11.960;2022-11-15T05:52:35;32.30;;;14.68;;
29728;SDS011;20055;51.498;11.960;2022-11-15T05:55:21;38.58;;;15.18;;
29728;SDS011;20055;51.498;11.960;2022-11-15T05:58:06;38.83;;;16.67;;
29728;SDS011;20055;51.498;11.960;2022-11-15T06:00:51;32.28;;;15.13;;
29728;SDS011;20055;51.498;11.960;2022-11-15T06:03:37;35.25;;;16.75;;
29728;SDS011;20055;51.498;11.960;2022-11-15T06:06:22;33.33;;;14.93;;
29728;SDS011;20055;51.498;11.960;2022-11-15T06:09:08;38.55;;;17.10;;
29728;SDS011;20055;51.498;11.960;2022-11-15T06:11:53;47.17;;;17.35;;
29728;SDS011;20055;51.498;11.960;2022-11-15T06:14:38;41.42;;;16.45;;
29728;SDS011;20055;51.498;11.960;2022-11-15T06:17:23;46.40;;;17.48;;
29728;SDS011;20055;51.498;11.960;2022-11-15T06:20:09;31.42;;;14.90;;
29728;SDS011;20055;51.498;11.960;2022-11-15T06:22:58;39.42;;;16.75;;
29728;SDS011;20055;51.498;11.960;2022-11-15T06:25:43;35.50;;;16.20;;
29728;SDS011;20055;51.498;11.960;2022-11-15T06:28:29;32.92;;;14.48;;
29728;SDS011;20055;51.498;11.960;2022-11-15T06:31:15;32.30;;;16.00;;
29728;SDS011;20055;51.498;11.960;2022-11-15T06:34:00;35.05;;;16.02;;
29728;SDS011;20055;51.498;11.960;2022-11-15T06:36:45;29.50;;;14.10;;
29728;SDS011;20055;51.498;11.960;2022-11-15T06:39:31;36.20;;;15.38;;
29728;SDS011;20055;51.498;11.960;2022-11-15T06:42:16;41.35;;;18.83;;
29728;SDS011;20055;51.498;11.960;2022-11-15T06:45:02;39.58;;;16.67;;
29728;SDS011;20055;51.498;11.960;2022-11-15T06:47:47;37.55;;;16.52;;
29728;SDS011;20055;51.498;11.960;2022-11-15T06:50:32;34.80;;;15.80;;
29728;SDS011;20055;51.498;11.960;2022-11-15T06:53:18;33.53;;;16.70;;
29728;SDS011;20055;51.498;11.960;2022-11-15T06:56:04;41.00;;;16.85;;
29728;SDS011;20055;51.498;11.960;2022-11-15T06:58:49;30.48;;;15.27;;
29728;SDS011;20055;51.498;11.960;2022-11-15T07:01:35;35.22;;;14.82;;
29728;SDS011;20055;51.498;11.960;2022-11-15T07:04:20;31.73;;;13.70;;
29728;SDS011;20055;51.498;11.960;2022-11-15T07:07:05;28.67;;;14.38;;
29728;SDS011;20055;51.498;11.960;2022-11-15T07:09:51;34.63;;;15.68;;
29728;SDS011;20055;51.498;11.960;2022-11-15T07:12:36;35.00;;;15.15;;
29728;SDS011;20055;51.498;11.960;2022-11-15T07:15:23;26.95;;;14.32;;
29728;SDS011;20055;51.498;11.960;2022-11-15T07:18:08;26.10;;;13.23;;
29728;SDS011;20055;51.498;11.960;2022-11-15T07:20:53;33.45;;;13.73;;
29728;SDS011;20055;51.498;11.960;2022-11-15T07:23:39;28.15;;;13.50;;
29728;SDS011;20055;51.498;11.960;2022-11-15T07:26:24;31.85;;;13.52;;
29728;SDS011;20055;51.498;11.960;2022-11-15T07:29:09;31.88;;;14.73;;
29728;SDS011;20055;51.498;11.960;2022-11-15T07:31:54;28.35;;;13.88;;
29728;SDS011;20055;51.498;11.960;2022-11-15T07:34:39;26.63;;;14.07;;
29728;SDS011;20055;51.498;11.960;2022-11-15T07:37:24;35.67;;;16.63;;
29728;SDS011;20055;51.498;11.960;2022-11-15T07:40:10;31.40;;;14.45;;
29728;SDS011;20055;51.498;11.960;2022-11-15T07:42:59;24.95;;;13.15;;
29728;SDS011;20055;51.498;11.960;2022-11-15T07:45:44;36.85;;;14.18;;
29728;SDS011;20055;51.498;11.960;2022-11-15T07:48:30;33.47;;;13.43;;
29728;SDS011;20055;51.498;11.960;2022-11-15T07:51:16;41.15;;;14.73;;
29728;SDS011;20055;51.498;11.960;2022-11-15T07:54:01;29.38;;;14.32;;
29728;SDS011;20055;51.498;11.960;2022-11-15T07:56:46;29.45;;;13.93;;
29728;SDS011;20055;51.498;11.960;2022-11-15T07:59:32;37.17;;;14.23;;
29728;SDS011;20055;51.498;11.960;2022-11-15T08:02:18;25.83;;;12.98;;
29728;SDS011;20055;51.498;11.960;2022-11-15T08:05:04;32.05;;;12.50;;
29728;SDS011;20055;51.498;11.960;2022-11-15T08:07:49;29.70;;;13.65;;
29728;SDS011;20055;51.498;11.960;2022-11-15T08:10:35;31.52;;;13.68;;
29728;SDS011;20055;51.498;11.960;2022-11-15T08:13:20;38.28;;;15.07;;
29728;SDS011;20055;51.498;11.960;2022-11-15T08:16:06;34.92;;;14.18;;
29728;SDS011;20055;51.498;11.960;2022-11-15T08:18:51;26.40;;;12.55;;
29728;SDS011;20055;51.498;11.960;2022-11-15T08:21:36;25.48;;;12.23;;
29728;SDS011;20055;51.498;11.960;2022-11-15T08:24:21;43.53;;;17.88;;
29728;SDS011;20055;51.498;11.960;2022-11-15T08:27:07;32.10;;;14.93;;
29728;SDS011;20055;51.498;11.960;2022-11-15T08:30:01;35.55;;;16.42;;
29728;SDS011;20055;51.498;11.960;2022-11-15T08:32:47;36.85;;;14.57;;
29728;SDS011;20055;51.498;11.960;2022-11-15T08:35:32;43.20;;;17.83;;
29728;SDS011;20055;51.498;11.960;2022-11-15T08:38:18;49.22;;;16.00;;
29728;SDS011;20055;51.498;11.960;2022-11-15T08:41:03;28.80;;;13.32;;
29728;SDS011;20055;51.498;11.960;2022-11-15T08:43:50;48.05;;;17.42;;
29728;SDS011;20055;51.498;11.960;2022-11-15T08:46:35;38.03;;;15.75;;
29728;SDS011;20055;51.498;11.960;2022-11-15T08:49:20;29.42;;;12.68;;
29728;SDS011;20055;51.498;11.960;2022-11-15T08:52:06;46.33;;;18.83;;
29728;SDS011;20055;51.498;11.960;2022-11-15T08:54:51;31.05;;;13.70;;
29728;SDS011;20055;51.498;11.960;2022-11-15T08:57:36;28.52;;;13.02;;
29728;SDS011;20055;51.498;11.960;2022-11-15T09:00:22;29.00;;;13.55;;
29728;SDS011;20055;51.498;11.960;2022-11-15T09:03:07;27.33;;;14.20;;
29728;SDS011;20055;51.498;11.960;2022-11-15T09:05:54;28.15;;;14.60;;
29728;SDS011;20055;51.498;11.960;2022-11-15T09:08:39;30.10;;;13.15;;
29728;SDS011;20055;51.498;11.960;2022-11-15T09:11:25;30.63;;;13.68;;
29728;SDS011;20055;51.498;11.960;2022-11-15T09:14:11;20.73;;;11.25;;
29728;SDS011;20055;51.498;11.960;2022-11-15T09:16:56;30.27;;;12.57;;
29728;SDS011;20055;51.498;11.960;2022-11-15T09:19:42;20.73;;;11.38;;
29728;SDS011;20055;51.498;11.960;2022-11-15T09:22:27;30.45;;;11.20;;
29728;SDS011;20055;51.498;11.960;2022-11-15T09:25:12;29.40;;;12.07;;
29728;SDS011;20055;51.498;11.960;2022-11-15T09:27:58;23.05;;;11.70;;
29728;SDS011;20055;51.498;11.960;2022-11-15T09:30:43;39.55;;;15.13;;
29728;SDS011;20055;51.498;11.960;2022-11-15T09:33:29;28.35;;;12.98;;
29728;SDS011;20055;51.498;11.960;2022-11-15T09:36:14;34.33;;;13.05;;
29728;SDS011;20055;51.498;11.960;2022-11-15T09:38:59;32.60;;;12.88;;
29728;SDS011;20055;51.498;11.960;2022-11-15T09:42:03;25.88;;;10.77;;
29728;SDS011;20055;51.498;11.960;2022-11-15T09:51:39;29.50;;;10.77;;
29728;SDS011;20055;51.498;11.960;2022-11-15T09:54:31;27.85;;;11.50;;
29728;SDS011;20055;51.498;11.960;2022-11-15T09:57:37;22.75;;;10.43;;
29728;SDS011;20055;51.498;11.960;2022-11-15T10:02:38;21.50;;;10.73;;
29728;SDS011;20055;51.498;11.960;2022-11-15T10:05:12;27.50;;;10.88;;
29728;SDS011;20055;51.498;11.960;2022-11-15T10:07:55;27.27;;;11.23;;
29728;SDS011;20055;51.498;11.960;2022-11-15T10:12:56;21.83;;;10.60;;
29728;SDS011;20055;51.498;11.960;2022-11-15T10:15:23;19.15;;;9.30;;
29728;SDS011;20055;51.498;11.960;2022-11-15T10:18:06;20.50;;;9.70;;
29728;SDS011;20055;51.498;11.960;2022-11-15T10:20:40;25.23;;;9.57;;
29728;SDS011;20055;51.498;11.960;2022-11-15T10:23:10;21.63;;;10.00;;
29728;SDS011;20055;51.498;11.960;2022-11-15T10:25:38;18.40;;;9.63;;
29728;SDS011;20055;51.498;11.960;2022-11-15T10:28:25;29.38;;;10.00;;
29728;SDS011;20055;51.498;11.960;2022-11-15T10:30:54;20.60;;;9.35;;
29728;SDS011;20055;51.498;11.960;2022-11-15T10:33:34;17.30;;;8.68;;
29728;SDS011;20055;51.498;11.960;2022-11-15T10:41:31;27.33;;;8.93;;
29728;SDS011;20055;51.498;11.960;2022-11-15T10:46:34;25.42;;;10.65;;
29728;SDS011;20055;51.498;11.960;2022-11-15T10:49:14;16.70;;;7.20;;
29728;SDS011;20055;51.498;11.960;2022-11-15T10:51:45;15.73;;;6.30;;
29728;SDS011;20055;51.498;11.960;2022-11-15T10:54:17;15.10;;;6.82;;
29728;SDS011;20055;51.498;11.960;2022-11-15T10:56:51;27.15;;;7.97;;
29728;SDS011;20055;51.498;11.960;2022-11-15T10:59:24;12.40;;;6.13;;
29728;SDS011;20055;51.498;11.960;2022-11-15T11:01:52;13.02;;;6.05;;
29728;SDS011;20055;51.498;11.960;2022-11-15T11:04:20;33.88;;;6.47;;
29728;SDS011;20055;51.498;11.960;2022-11-15T11:06:50;15.55;;;7.03;;
29728;SDS011;20055;51.498;11.960;2022-11-15T11:11:50;10.25;;;6.60;;
29728;SDS011;20055;51.498;11.960;2022-11-15T11:14:22;15.15;;;8.52;;
29728;SDS011;20055;51.498;11.960;2022-11-15T11:17:02;13.43;;;7.28;;
29728;SDS011;20055;51.498;11.960;2022-11-15T11:27:31;8.63;;;5.45;;
29728;SDS011;20055;51.498;11.960;2022-11-15T11:35:36;18.00;;;6.72;;
29728;SDS011;20055;51.498;11.960;2022-11-15T11:43:55;9.80;;;6.15;;
29728;SDS011;20055;51.498;11.960;2022-11-15T11:48:53;15.90;;;6.82;;
29728;SDS011;20055;51.498;11.960;2022-11-15T11:54:06;15.73;;;6.35;;
29728;SDS011;20055;51.498;11.960;2022-11-15T11:56:39;12.90;;;5.97;;
29728;SDS011;20055;51.498;11.960;2022-11-15T11:59:10;12.40;;;6.43;;
29728;SDS011;20055;51.498;11.960;2022-11-15T12:01:48;10.13;;;5.50;;
29728;SDS011;20055;51.498;11.960;2022-11-15T12:04:19;15.55;;;6.03;;
29728;SDS011;20055;51.498;11.960;2022-11-15T12:06:55;14.10;;;6.05;;
29728;SDS011;20055;51.498;11.960;2022-11-15T12:09:39;9.95;;;5.38;;
29728;SDS011;20055;51.498;11.960;2022-11-15T12:15:15;12.90;;;5.82;;
29728;SDS011;20055;51.498;11.960;2022-11-15T12:17:43;8.82;;;5.35;;
29728;SDS011;20055;51.498;11.960;2022-11-15T12:20:18;19.67;;;6.30;;
29728;SDS011;20055;51.498;11.960;2022-11-15T12:22:59;14.38;;;6.75;;
29728;SDS011;20055;51.498;11.960;2022-11-15T12:28:18;16.23;;;6.65;;
29728;SDS011;20055;51.498;11.960;2022-11-15T12:30:50;13.50;;;5.55;;
29728;SDS011;20055;51.498;11.960;2022-11-15T12:33:37;14.00;;;5.30;;
29728;SDS011;20055;51.498;11.960;2022-11-15T12:36:09;13.48;;;5.03;;
29728;SDS011;20055;51.498;11.960;2022-11-15T12:41:44;15.70;;;6.25;;
29728;SDS011;20055;51.498;11.960;2022-11-15T13:02:29;11.23;;;4.47;;
29728;SDS011;20055;51.498;11.960;2022-11-15T13:17:44;18.40;;;6.13;;
29728;SDS011;20055;51.498;11.960;2022-11-15T13:25:18;21.55;;;6.63;;
29728;SDS011;20055;51.498;11.960;2022-11-15T13:27:46;18.73;;;7.13;;
29728;SDS011;20055;51.498;11.960;2022-11-15T13:30:20;18.38;;;6.43;;
29728;SDS011;20055;51.498;11.960;2022-11-15T13:32:47;18.98;;;8.05;;
29728;SDS011;20055;51.498;11.960;2022-11-15T13:35:27;17.63;;;7.10;;
29728;SDS011;20055;51.498;11.960;2022-11-15T13:37:55;18.00;;;6.15;;
29728;SDS011;20055;51.498;11.960;2022-11-15T13:40:23;10.52;;;5.90;;
29728;SDS011;20055;51.498;11.960;2022-11-15T13:42:53;13.07;;;4.60;;
29728;SDS011;20055;51.498;11.960;2022-11-15T13:45:21;9.70;;;5.07;;
29728;SDS011;20055;51.498;11.960;2022-11-15T13:47:54;9.18;;;4.03;;
29728;SDS011;20055;51.498;11.960;2022-11-15T13:50:26;7.50;;;3.78;;
29728;SDS011;20055;51.498;11.960;2022-11-15T13:52:57;6.80;;;3.53;;
29728;SDS011;20055;51.498;11.960;2022-11-15T13:55:27;16.07;;;3.87;;
29728;SDS011;20055;51.498;11.960;2022-11-15T13:57:56;15.15;;;3.88;;
29728;SDS011;20055;51.498;11.960;2022-11-15T14:00:57;12.32;;;3.67;;
29728;SDS011;20055;51.498;11.960;2022-11-15T14:03:26;4.97;;;3.22;;
29728;SDS011;20055;51.498;11.960;2022-11-15T14:08:32;11.13;;;3.80;;
29728;SDS011;20055;51.498;11.960;2022-11-15T14:11:09;20.15;;;3.95;;
29728;SDS011;20055;51.498;11.960;2022-11-15T14:13:38;7.35;;;3.95;;
29728;SDS011;20055;51.498;11.960;2022-11-15T14:16:18;11.65;;;3.80;;
29728;SDS011;20055;51.498;11.960;2022-11-15T14:18:52;16.67;;;4.40;;
29728;SDS011;20055;51.498;11.960;2022-11-15T14:21:19;15.15;;;4.65;;
29728;SDS011;20055;51.498;11.960;2022-11-15T14:23:46;15.15;;;5.13;;
29728;SDS011;20055;51.498;11.960;2022-11-15T14:26:28;13.55;;;5.00;;
29728;SDS011;20055;51.498;11.960;2022-11-15T14:28:55;21.98;;;5.38;;
29728;SDS011;20055;51.498;11.960;2022-11-15T14:31:21;22.08;;;4.85;;
29728;SDS011;20055;51.498;11.960;2022-11-15T14:33:48;7.85;;;4.20;;
29728;SDS011;20055;51.498;11.960;2022-11-15T14:36:16;14.80;;;4.18;;
29728;SDS011;20055;51.498;11.960;2022-11-15T14:38:44;16.05;;;4.43;;
29728;SDS011;20055;51.498;11.960;2022-11-15T14:41:17;9.98;;;4.88;;
29728;SDS011;20055;51.498;11.960;2022-11-15T14:43:51;14.00;;;4.57;;
29728;SDS011;20055;51.498;11.960;2022-11-15T14:46:18;10.27;;;4.45;;
29728;SDS011;20055;51.498;11.960;2022-11-15T14:48:44;24.08;;;5.88;;
29728;SDS011;20055;51.498;11.960;2022-11-15T14:51:11;19.13;;;6.20;;
29728;SDS011;20055;51.498;11.960;2022-11-15T14:53:40;17.30;;;5.53;;
29728;SDS011;20055;51.498;11.960;2022-11-15T14:56:07;18.55;;;5.57;;
29728;SDS011;20055;51.498;11.960;2022-11-15T14:58:34;18.88;;;5.63;;
29728;SDS011;20055;51.498;11.960;2022-11-15T15:01:01;11.55;;;5.05;;
29728;SDS011;20055;51.498;11.960;2022-11-15T15:03:35;15.05;;;5.10;;
29728;SDS011;20055;51.498;11.960;2022-11-15T15:06:01;17.17;;;5.85;;
29728;SDS011;20055;51.498;11.960;2022-11-15T15:08:28;16.90;;;4.90;;
29728;SDS011;20055;51.498;11.960;2022-11-15T15:10:54;11.02;;;5.20;;
29728;SDS011;20055;51.498;11.960;2022-11-15T15:13:22;27.13;;;5.78;;
29728;SDS011;20055;51.498;11.960;2022-11-15T15:15:50;19.02;;;6.20;;
29728;SDS011;20055;51.498;11.960;2022-11-15T15:18:17;19.70;;;8.18;;
29728;SDS011;20055;51.498;11.960;2022-11-15T15:20:44;21.30;;;5.85;;
29728;SDS011;20055;51.498;11.960;2022-11-15T15:23:14;15.40;;;6.00;;
29728;SDS011;20055;51.498;11.960;2022-11-15T15:25:42;10.75;;;5.13;;
29728;SDS011;20055;51.498;11.960;2022-11-15T15:28:11;11.02;;;5.22;;
29728;SDS011;20055;51.498;11.960;2022-11-15T15:30:37;11.82;;;5.80;;
29728;SDS011;20055;51.498;11.960;2022-11-15T15:33:03;17.38;;;6.28;;
29728;SDS011;20055;51.498;11.960;2022-11-15T15:35:31;18.40;;;6.40;;
29728;SDS011;20055;51.498;11.960;2022-11-15T15:37:59;15.95;;;6.03;;
29728;SDS011;20055;51.498;11.960;2022-11-15T15:40:27;21.10;;;7.32;;
29728;SDS011;20055;51.498;11.960;2022-11-15T15:42:54;12.95;;;6.28;;
29728;SDS011;20055;51.498;11.960;2022-11-15T15:45:21;30.05;;;6.68;;
29728;SDS011;20055;51.498;11.960;2022-11-15T15:47:48;20.60;;;6.72;;
29728;SDS011;20055;51.498;11.960;2022-11-15T15:52:44;40.42;;;9.65;;
29728;SDS011;20055;51.498;11.960;2022-11-15T15:55:10;28.40;;;10.32;;
29728;SDS011;20055;51.498;11.960;2022-11-15T15:57:37;43.28;;;12.18;;
29728;SDS011;20055;51.498;11.960;2022-11-15T16:00:04;36.47;;;12.10;;
29728;SDS011;20055;51.498;11.960;2022-11-15T16:02:38;26.73;;;10.93;;
29728;SDS011;20055;51.498;11.960;2022-11-15T16:05:04;27.88;;;10.10;;
29728;SDS011;20055;51.498;11.960;2022-11-15T16:07:31;29.05;;;9.57;;
29728;SDS011;20055;51.498;11.960;2022-11-15T16:09:58;42.35;;;9.80;;
29728;SDS011;20055;51.498;11.960;2022-11-15T16:12:30;26.52;;;11.05;;
29728;SDS011;20055;51.498;11.960;2022-11-15T16:14:56;19.17;;;8.60;;
29728;SDS011;20055;51.498;11.960;2022-11-15T16:17:24;23.20;;;8.35;;
29728;SDS011;20055;51.498;11.960;2022-11-15T16:19:51;18.10;;;8.35;;
29728;SDS011;20055;51.498;11.960;2022-11-15T16:22:18;33.40;;;8.80;;
29728;SDS011;20055;51.498;11.960;2022-11-15T16:24:44;21.92;;;9.05;;
29728;SDS011;20055;51.498;11.960;2022-11-15T16:27:20;21.55;;;8.60;;
29728;SDS011;20055;51.498;11.960;2022-11-15T16:29:48;21.55;;;8.77;;
29728;SDS011;20055;51.498;11.960;2022-11-15T16:32:15;19.65;;;7.85;;
29728;SDS011;20055;51.498;11.960;2022-11-15T16:34:42;18.52;;;7.25;;
29728;SDS011;20055;51.498;11.960;2022-11-15T16:37:13;19.45;;;7.55;;
29728;SDS011;20055;51.498;11.960;2022-11-15T16:39:45;16.42;;;7.22;;
29728;SDS011;20055;51.498;11.960;2022-11-15T16:42:11;23.52;;;7.97;;
29728;SDS011;20055;51.498;11.960;2022-11-15T16:44:38;14.80;;;6.97;;
29728;SDS011;20055;51.498;11.960;2022-11-15T16:47:04;17.42;;;7.82;;
29728;SDS011;20055;51.498;11.960;2022-11-15T16:49:31;13.70;;;6.65;;
29728;SDS011;20055;51.498;11.960;2022-11-15T16:51:57;23.35;;;7.10;;
29728;SDS011;20055;51.498;11.960;2022-11-15T16:54:23;19.40;;;8.00;;
29728;SDS011;20055;51.498;11.960;2022-11-15T16:56:50;16.55;;;8.35;;
29728;SDS011;20055;51.498;11.960;2022-11-15T16:59:17;17.02;;;7.57;;
29728;SDS011;20055;51.498;11.960;2022-11-15T17:01:44;24.48;;;9.77;;
29728;SDS011;20055;51.498;11.960;2022-11-15T17:04:17;21.52;;;8.60;;
29728;SDS011;20055;51.498;11.960;2022-11-15T17:06:45;21.50;;;9.07;;
29728;SDS011;20055;51.498;11.960;2022-11-15T17:09:19;14.63;;;7.47;;
29728;SDS011;20055;51.498;11.960;2022-11-15T17:11:48;18.52;;;7.00;;
29728;SDS011;20055;51.498;11.960;2022-11-15T17:14:14;20.08;;;8.35;;
29728;SDS011;20055;51.498;11.960;2022-11-15T17:16:41;16.60;;;8.73;;
29728;SDS011;20055;51.498;11.960;2022-11-15T17:19:16;19.65;;;8.57;;
29728;SDS011;20055;51.498;11.960;2022-11-15T17:21:43;23.60;;;9.80;;
29728;SDS011;20055;51.498;11.960;2022-11-15T17:24:10;25.02;;;10.18;;